createdAt,value
2017-09-05T00:00:08.478Z,0
2017-09-05T00:01:08.498Z,0
2017-09-05T00:02:08.521Z,0
2017-09-05T00:03:08.859Z,0
2017-09-05T00:04:08.885Z,0
2017-09-05T00:05:09.320Z,0
2017-09-05T00:06:09.346Z,0
2017-09-05T00:07:08.980Z,0
2017-09-05T00:08:08.658Z,0
2017-09-05T00:09:09.120Z,0
2017-09-05T00:10:09.442Z,0
2017-09-05T00:11:09.121Z,0
2017-09-05T00:12:09.141Z,0
2017-09-05T00:13:09.493Z,0
2017-09-05T00:14:09.642Z,0
2017-09-05T00:15:09.191Z,0
2017-09-05T00:16:09.189Z,0
2017-09-05T00:17:09.197Z,0
2017-09-05T00:18:09.661Z,0
2017-09-05T00:19:09.204Z,0
2017-09-05T00:20:09.649Z,0
2017-09-05T00:21:08.917Z,0
2017-09-05T00:22:08.942Z,0
2017-09-05T00:23:08.637Z,0
2017-09-05T00:24:09.104Z,0
2017-09-05T00:25:09.416Z,0
2017-09-05T00:26:09.114Z,0
2017-09-05T00:27:09.790Z,0
2017-09-05T00:28:09.487Z,0
2017-09-05T00:29:09.797Z,0
2017-09-05T00:30:09.840Z,0
2017-09-05T00:31:08.804Z,0
2017-09-05T00:32:09.258Z,0
2017-09-05T00:33:09.372Z,0
2017-09-05T00:34:09.505Z,0
2017-09-05T00:35:08.884Z,0
2017-09-05T00:36:09.374Z,0
2017-09-05T00:37:09.566Z,0
2017-09-05T00:38:09.380Z,0
2017-09-05T00:39:09.620Z,0
2017-09-05T00:40:09.694Z,0
2017-09-05T00:41:09.735Z,0
2017-09-05T00:42:09.469Z,0
2017-09-05T00:43:09.762Z,0
2017-09-05T00:44:09.759Z,0
2017-09-05T00:45:09.737Z,0
2017-09-05T00:46:09.755Z,0
2017-09-05T00:47:09.536Z,0
2017-09-05T00:48:09.791Z,0
2017-09-05T00:49:09.811Z,0
2017-09-05T00:50:09.862Z,0
2017-09-05T00:51:09.531Z,0
2017-09-05T00:52:09.874Z,0
2017-09-05T00:53:09.895Z,0
2017-09-05T00:54:09.922Z,0
2017-09-05T00:55:09.697Z,0
2017-09-05T00:56:09.960Z,0
2017-09-05T00:57:09.767Z,0
2017-09-05T00:58:09.673Z,0
2017-09-05T00:59:10.012Z,0
2017-09-05T01:00:09.710Z,0
2017-09-05T01:01:10.392Z,0
2017-09-05T01:02:10.088Z,0
2017-09-05T01:03:10.413Z,0
2017-09-05T01:04:10.110Z,0
2017-09-05T01:05:09.819Z,0
2017-09-05T01:06:10.163Z,0
2017-09-05T01:07:09.525Z,0
2017-09-05T01:08:10.204Z,0
2017-09-05T01:09:10.592Z,0
2017-09-05T01:10:10.246Z,0
2017-09-05T01:11:10.579Z,0
2017-09-05T01:12:09.975Z,0
2017-09-05T01:13:10.823Z,0
2017-09-05T01:14:09.666Z,0
2017-09-05T01:15:10.340Z,0
2017-09-05T01:16:10.360Z,0
2017-09-05T01:17:10.379Z,0
2017-09-05T01:18:10.725Z,0
2017-09-05T01:19:10.416Z,0
2017-09-05T01:20:10.611Z,0
2017-09-05T01:21:10.468Z,0
2017-09-05T01:22:10.482Z,0
2017-09-05T01:23:10.505Z,0
2017-09-05T01:24:10.840Z,0
2017-09-05T01:25:09.896Z,0
2017-09-05T01:26:10.235Z,0
2017-09-05T01:27:10.589Z,0
2017-09-05T01:28:10.603Z,0
2017-09-05T01:29:09.973Z,0
2017-09-05T01:30:10.320Z,0
2017-09-05T01:31:10.657Z,0
2017-09-05T01:32:10.033Z,0
2017-09-05T01:33:10.707Z,0
2017-09-05T01:34:10.396Z,0
2017-09-05T01:35:10.413Z,0
2017-09-05T01:36:10.437Z,0
2017-09-05T01:37:10.779Z,0
2017-09-05T01:38:10.482Z,0
2017-09-05T01:39:10.818Z,0
2017-09-05T01:40:10.829Z,0
2017-09-05T01:41:10.535Z,0
2017-09-05T01:42:10.884Z,0
2017-09-05T01:43:10.580Z,0
2017-09-05T01:44:10.920Z,0
2017-09-05T01:45:10.941Z,0
2017-09-05T01:46:10.954Z,0
2017-09-05T01:47:11.243Z,0
2017-09-05T01:48:11.490Z,0
2017-09-05T01:49:11.458Z,0
2017-09-05T01:50:11.045Z,0
2017-09-05T01:51:10.936Z,0
2017-09-05T01:52:11.078Z,0
2017-09-05T01:53:11.168Z,0
2017-09-05T01:54:11.182Z,0
2017-09-05T01:55:11.061Z,0
2017-09-05T01:56:11.494Z,0
2017-09-05T01:57:11.180Z,0
2017-09-05T01:58:11.198Z,0
2017-09-05T01:59:11.624Z,0
2017-09-05T02:00:11.330Z,0
2017-09-05T02:01:11.253Z,0
2017-09-05T02:02:11.269Z,0
2017-09-05T02:03:11.752Z,0
2017-09-05T02:04:10.993Z,0
2017-09-05T02:05:11.459Z,0
2017-09-05T02:06:11.043Z,0
2017-09-05T02:07:11.493Z,0
2017-09-05T02:08:11.499Z,0
2017-09-05T02:09:11.953Z,0
2017-09-05T02:10:11.503Z,0
2017-09-05T02:11:11.170Z,0
2017-09-05T02:12:11.177Z,0
2017-09-05T02:13:11.636Z,0
2017-09-05T02:14:11.952Z,0
2017-09-05T02:15:11.627Z,0
2017-09-05T02:16:11.962Z,0
2017-09-05T02:17:11.783Z,0
2017-09-05T02:18:11.771Z,0
2017-09-05T02:19:12.096Z,0
2017-09-05T02:20:12.099Z,0
2017-09-05T02:21:11.774Z,0
2017-09-05T02:22:11.793Z,0
2017-09-05T02:23:11.471Z,0
2017-09-05T02:24:11.821Z,0
2017-09-05T02:25:11.954Z,0
2017-09-05T02:26:11.865Z,0
2017-09-05T02:27:11.843Z,0
2017-09-05T02:28:11.592Z,0
2017-09-05T02:29:11.852Z,0
2017-09-05T02:30:11.640Z,0
2017-09-05T02:31:11.326Z,0
2017-09-05T02:32:11.869Z,0
2017-09-05T02:33:11.569Z,0
2017-09-05T02:34:12.234Z,0
2017-09-05T02:35:12.251Z,0
2017-09-05T02:36:12.278Z,0
2017-09-05T02:37:11.800Z,0
2017-09-05T02:38:11.785Z,0
2017-09-05T02:39:12.207Z,0
2017-09-05T02:40:12.022Z,0
2017-09-05T02:41:12.082Z,0
2017-09-05T02:42:12.217Z,0
2017-09-05T02:43:12.099Z,0
2017-09-05T02:44:12.437Z,0
2017-09-05T02:45:12.448Z,0
2017-09-05T02:46:11.852Z,0
2017-09-05T02:47:12.160Z,0
2017-09-05T02:48:12.182Z,0
2017-09-05T02:49:11.871Z,0
2017-09-05T02:50:11.904Z,0
2017-09-05T02:51:12.249Z,0
2017-09-05T02:52:12.260Z,0
2017-09-05T02:53:12.284Z,0
2017-09-05T02:54:12.302Z,0
2017-09-05T02:55:12.652Z,0
2017-09-05T02:56:12.661Z,0
2017-09-05T02:57:12.878Z,0
2017-09-05T02:58:12.718Z,0
2017-09-05T02:59:12.079Z,0
2017-09-05T03:00:11.776Z,0
2017-09-05T03:01:12.463Z,0
2017-09-05T03:02:12.786Z,0
2017-09-05T03:03:12.479Z,0
2017-09-05T03:04:12.500Z,0
2017-09-05T03:05:11.867Z,0
2017-09-05T03:06:12.860Z,0
2017-09-05T03:07:11.906Z,0
2017-09-05T03:08:12.250Z,0
2017-09-05T03:09:12.591Z,0
2017-09-05T03:10:12.936Z,0
2017-09-05T03:11:12.639Z,0
2017-09-05T03:12:12.328Z,0
2017-09-05T03:13:12.999Z,0
2017-09-05T03:14:12.682Z,0
2017-09-05T03:15:12.907Z,0
2017-09-05T03:16:13.114Z,0
2017-09-05T03:17:12.901Z,0
2017-09-05T03:18:12.712Z,0
2017-09-05T03:19:12.800Z,0
2017-09-05T03:20:12.914Z,0
2017-09-05T03:21:13.148Z,0
2017-09-05T03:22:13.165Z,0
2017-09-05T03:23:12.401Z,0
2017-09-05T03:24:13.201Z,0
2017-09-05T03:25:12.906Z,0
2017-09-05T03:26:12.928Z,0
2017-09-05T03:27:13.269Z,0
2017-09-05T03:28:13.278Z,0
2017-09-05T03:29:12.725Z,0
2017-09-05T03:30:13.330Z,0
2017-09-05T03:31:13.014Z,0
2017-09-05T03:32:13.360Z,0
2017-09-05T03:33:12.411Z,0
2017-09-05T03:34:13.076Z,0
2017-09-05T03:35:12.767Z,0
2017-09-05T03:36:13.117Z,0
2017-09-05T03:37:12.813Z,0
2017-09-05T03:38:13.154Z,0
2017-09-05T03:39:13.496Z,0
2017-09-05T03:40:13.247Z,0
2017-09-05T03:41:13.216Z,0
2017-09-05T03:42:13.211Z,0
2017-09-05T03:43:12.926Z,0
2017-09-05T03:44:13.266Z,0
2017-09-05T03:45:12.964Z,0
2017-09-05T03:46:12.982Z,0
2017-09-05T03:47:13.654Z,0
2017-09-05T03:48:13.345Z,0
2017-09-05T03:49:13.365Z,0
2017-09-05T03:50:13.383Z,0
2017-09-05T03:51:13.739Z,0
2017-09-05T03:52:12.773Z,0
2017-09-05T03:53:13.440Z,0
2017-09-05T03:54:13.464Z,0
2017-09-05T03:55:13.811Z,0
2017-09-05T03:56:13.174Z,0
2017-09-05T03:57:12.871Z,0
2017-09-05T03:58:13.210Z,0
2017-09-05T03:59:13.554Z,0
2017-09-05T04:00:13.253Z,0
2017-09-05T04:01:13.599Z,0
2017-09-05T04:02:13.940Z,0
2017-09-05T04:03:13.639Z,0
2017-09-05T04:04:13.973Z,0
2017-09-05T04:05:13.672Z,0
2017-09-05T04:06:13.368Z,0
2017-09-05T04:07:13.711Z,0
2017-09-05T04:08:13.734Z,0
2017-09-05T04:09:14.081Z,0
2017-09-05T04:10:13.762Z,0
2017-09-05T04:11:13.496Z,0
2017-09-05T04:12:13.485Z,0
2017-09-05T04:13:13.504Z,0
2017-09-05T04:14:13.842Z,4
2017-09-05T04:15:13.534Z,4
2017-09-05T04:16:14.212Z,4
2017-09-05T04:17:13.260Z,4
2017-09-05T04:18:14.236Z,4
2017-09-05T04:19:13.941Z,8
2017-09-05T04:20:13.633Z,4
2017-09-05T04:21:13.654Z,8
2017-09-05T04:22:14.343Z,8
2017-09-05T04:23:13.695Z,8
2017-09-05T04:24:13.708Z,8
2017-09-05T04:25:13.728Z,12
2017-09-05T04:26:13.755Z,12
2017-09-05T04:27:13.767Z,16
2017-09-05T04:28:14.116Z,16
2017-09-05T04:29:14.443Z,16
2017-09-05T04:30:14.149Z,20
2017-09-05T04:31:14.180Z,20
2017-09-05T04:32:14.181Z,24
2017-09-05T04:33:13.883Z,28
2017-09-05T04:34:14.220Z,28
2017-09-05T04:35:14.240Z,32
2017-09-05T04:36:14.592Z,36
2017-09-05T04:37:14.299Z,36
2017-09-05T04:38:13.654Z,40
2017-09-05T04:39:14.646Z,44
2017-09-05T04:40:14.342Z,48
2017-09-05T04:41:14.034Z,52
2017-09-05T04:42:14.830Z,48
2017-09-05T04:43:14.766Z,52
2017-09-05T04:44:14.767Z,56
2017-09-05T04:45:14.310Z,60
2017-09-05T04:46:14.908Z,64
2017-09-05T04:47:14.569Z,72
2017-09-05T04:48:14.491Z,72
2017-09-05T04:49:14.925Z,76
2017-09-05T04:50:14.601Z,80
2017-09-05T04:51:14.324Z,84
2017-09-05T04:52:14.248Z,88
2017-09-05T04:53:14.391Z,88
2017-09-05T04:54:14.401Z,92
2017-09-05T04:55:15.038Z,96
2017-09-05T04:56:14.734Z,100
2017-09-05T04:57:14.892Z,104
2017-09-05T04:58:14.894Z,108
2017-09-05T04:59:14.500Z,112
2017-09-05T05:00:14.574Z,116
2017-09-05T05:01:15.223Z,120
2017-09-05T05:02:14.589Z,120
2017-09-05T05:03:14.909Z,124
2017-09-05T05:04:14.893Z,132
2017-09-05T05:05:14.273Z,132
2017-09-05T05:06:15.047Z,136
2017-09-05T05:07:15.040Z,140
2017-09-05T05:08:15.041Z,140
2017-09-05T05:09:15.045Z,148
2017-09-05T05:10:15.046Z,148
2017-09-05T05:11:15.040Z,152
2017-09-05T05:12:14.716Z,152
2017-09-05T05:13:14.734Z,160
2017-09-05T05:14:14.734Z,160
2017-09-05T05:15:14.758Z,160
2017-09-05T05:16:15.084Z,164
2017-09-05T05:17:15.116Z,168
2017-09-05T05:18:14.783Z,168
2017-09-05T05:19:14.802Z,176
2017-09-05T05:20:15.124Z,176
2017-09-05T05:21:14.793Z,180
2017-09-05T05:22:15.462Z,180
2017-09-05T05:23:15.470Z,184
2017-09-05T05:24:14.942Z,188
2017-09-05T05:25:15.009Z,188
2017-09-05T05:26:14.979Z,192
2017-09-05T05:27:15.229Z,192
2017-09-05T05:28:16.734Z,196
2017-09-05T05:29:15.363Z,200
2017-09-05T05:30:14.961Z,200
2017-09-05T05:31:15.301Z,204
2017-09-05T05:32:15.325Z,204
2017-09-05T05:33:15.659Z,204
2017-09-05T05:34:15.408Z,212
2017-09-05T05:35:15.058Z,212
2017-09-05T05:36:15.073Z,216
2017-09-05T05:37:15.038Z,216
2017-09-05T05:38:15.036Z,220
2017-09-05T05:39:15.706Z,220
2017-09-05T05:40:15.183Z,220
2017-09-05T05:41:15.488Z,224
2017-09-05T05:42:15.848Z,228
2017-09-05T05:43:15.523Z,228
2017-09-05T05:44:15.882Z,232
2017-09-05T05:45:15.564Z,236
2017-09-05T05:46:15.681Z,236
2017-09-05T05:47:15.869Z,240
2017-09-05T05:48:15.626Z,244
2017-09-05T05:49:14.994Z,244
2017-09-05T05:50:15.013Z,244
2017-09-05T05:51:15.724Z,248
2017-09-05T05:52:16.021Z,252
2017-09-05T05:53:15.395Z,252
2017-09-05T05:54:15.728Z,256
2017-09-05T05:55:15.125Z,256
2017-09-05T05:56:15.769Z,260
2017-09-05T05:57:16.110Z,260
2017-09-05T05:58:15.811Z,264
2017-09-05T05:59:15.609Z,264
2017-09-05T06:00:15.856Z,264
2017-09-05T06:01:15.599Z,268
2017-09-05T06:02:15.892Z,272
2017-09-05T06:03:15.631Z,272
2017-09-05T06:04:15.321Z,280
2017-09-05T06:05:15.317Z,288
2017-09-05T06:06:16.382Z,300
2017-09-05T06:07:16.393Z,308
2017-09-05T06:08:16.099Z,316
2017-09-05T06:09:16.579Z,312
2017-09-05T06:10:16.035Z,312
2017-09-05T06:11:16.054Z,312
2017-09-05T06:12:16.488Z,316
2017-09-05T06:13:16.195Z,316
2017-09-05T06:14:15.593Z,316
2017-09-05T06:15:15.799Z,316
2017-09-05T06:16:15.825Z,320
2017-09-05T06:17:15.996Z,316
2017-09-05T06:18:16.181Z,308
2017-09-05T06:19:16.202Z,304
2017-09-05T06:20:16.541Z,304
2017-09-05T06:21:15.589Z,304
2017-09-05T06:22:16.736Z,304
2017-09-05T06:23:16.778Z,308
2017-09-05T06:24:15.975Z,316
2017-09-05T06:25:16.175Z,320
2017-09-05T06:26:16.667Z,320
2017-09-05T06:27:16.676Z,324
2017-09-05T06:28:16.049Z,328
2017-09-05T06:29:16.070Z,336
2017-09-05T06:30:16.728Z,348
2017-09-05T06:31:16.425Z,360
2017-09-05T06:32:16.284Z,360
2017-09-05T06:33:16.805Z,352
2017-09-05T06:34:16.605Z,344
2017-09-05T06:35:16.181Z,348
2017-09-05T06:36:16.527Z,340
2017-09-05T06:37:16.748Z,332
2017-09-05T06:38:16.237Z,324
2017-09-05T06:39:16.578Z,324
2017-09-05T06:40:16.929Z,328
2017-09-05T06:41:16.003Z,332
2017-09-05T06:42:16.314Z,336
2017-09-05T06:43:16.770Z,336
2017-09-05T06:44:16.345Z,332
2017-09-05T06:45:16.043Z,336
2017-09-05T06:46:16.533Z,332
2017-09-05T06:47:16.403Z,340
2017-09-05T06:48:16.751Z,352
2017-09-05T06:49:16.769Z,364
2017-09-05T06:50:16.238Z,388
2017-09-05T06:51:17.152Z,396
2017-09-05T06:52:17.044Z,400
2017-09-05T06:53:17.168Z,400
2017-09-05T06:54:16.857Z,400
2017-09-05T06:55:16.555Z,400
2017-09-05T06:56:16.896Z,384
2017-09-05T06:57:17.254Z,368
2017-09-05T06:58:16.939Z,376
2017-09-05T06:59:16.956Z,388
2017-09-05T07:00:16.664Z,404
2017-09-05T07:01:16.672Z,416
2017-09-05T07:02:16.369Z,428
2017-09-05T07:03:16.713Z,436
2017-09-05T07:04:17.055Z,432
2017-09-05T07:05:17.069Z,424
2017-09-05T07:06:17.095Z,412
2017-09-05T07:07:17.436Z,412
2017-09-05T07:08:16.809Z,420
2017-09-05T07:09:17.142Z,436
2017-09-05T07:10:17.168Z,452
2017-09-05T07:11:17.730Z,460
2017-09-05T07:12:16.886Z,464
2017-09-05T07:13:17.565Z,452
2017-09-05T07:14:17.242Z,432
2017-09-05T07:15:17.263Z,432
2017-09-05T07:16:16.961Z,444
2017-09-05T07:17:16.980Z,460
2017-09-05T07:18:17.320Z,460
2017-09-05T07:19:17.338Z,444
2017-09-05T07:20:17.808Z,436
2017-09-05T07:21:17.372Z,424
2017-09-05T07:22:17.074Z,416
2017-09-05T07:23:17.413Z,408
2017-09-05T07:24:17.434Z,400
2017-09-05T07:25:17.127Z,392
2017-09-05T07:26:17.475Z,376
2017-09-05T07:27:17.502Z,372
2017-09-05T07:28:16.863Z,372
2017-09-05T07:29:17.544Z,376
2017-09-05T07:30:17.881Z,376
2017-09-05T07:31:17.561Z,372
2017-09-05T07:32:17.595Z,376
2017-09-05T07:33:17.614Z,380
2017-09-05T07:34:17.409Z,380
2017-09-05T07:35:17.327Z,388
2017-09-05T07:36:17.714Z,384
2017-09-05T07:37:17.688Z,384
2017-09-05T07:38:18.156Z,380
2017-09-05T07:39:17.812Z,384
2017-09-05T07:40:17.539Z,384
2017-09-05T07:41:17.890Z,384
2017-09-05T07:42:18.251Z,388
2017-09-05T07:43:17.802Z,392
2017-09-05T07:44:17.506Z,396
2017-09-05T07:45:17.511Z,404
2017-09-05T07:46:17.870Z,408
2017-09-05T07:47:17.879Z,416
2017-09-05T07:48:18.127Z,416
2017-09-05T07:49:17.659Z,416
2017-09-05T07:50:18.054Z,416
2017-09-05T07:51:17.661Z,416
2017-09-05T07:52:17.981Z,408
2017-09-05T07:53:18.013Z,404
2017-09-05T07:54:18.020Z,400
2017-09-05T07:55:17.845Z,396
2017-09-05T07:56:18.177Z,400
2017-09-05T07:57:18.407Z,396
2017-09-05T07:58:18.100Z,396
2017-09-05T07:59:18.118Z,400
2017-09-05T08:00:17.495Z,400
2017-09-05T08:01:18.482Z,404
2017-09-05T08:02:18.182Z,404
2017-09-05T08:03:17.927Z,408
2017-09-05T08:04:18.219Z,408
2017-09-05T08:05:18.268Z,408
2017-09-05T08:06:17.942Z,408
2017-09-05T08:07:18.605Z,412
2017-09-05T08:08:18.300Z,412
2017-09-05T08:09:18.326Z,412
2017-09-05T08:10:18.343Z,412
2017-09-05T08:11:18.354Z,416
2017-09-05T08:12:18.700Z,416
2017-09-05T08:13:18.402Z,416
2017-09-05T08:14:18.422Z,420
2017-09-05T08:15:18.457Z,420
2017-09-05T08:16:18.465Z,420
2017-09-05T08:17:18.792Z,424
2017-09-05T08:18:18.968Z,428
2017-09-05T08:19:18.978Z,424
2017-09-05T08:20:18.690Z,428
2017-09-05T08:21:18.333Z,428
2017-09-05T08:22:18.789Z,428
2017-09-05T08:23:19.121Z,428
2017-09-05T08:24:19.086Z,432
2017-09-05T08:25:18.805Z,440
2017-09-05T08:26:18.788Z,440
2017-09-05T08:27:18.562Z,444
2017-09-05T08:28:18.475Z,448
2017-09-05T08:29:18.180Z,448
2017-09-05T08:30:19.161Z,452
2017-09-05T08:31:18.840Z,460
2017-09-05T08:32:18.863Z,464
2017-09-05T08:33:18.862Z,464
2017-09-05T08:34:18.503Z,468
2017-09-05T08:35:18.536Z,472
2017-09-05T08:36:18.869Z,472
2017-09-05T08:37:19.115Z,472
2017-09-05T08:38:19.240Z,476
2017-09-05T08:39:18.929Z,480
2017-09-05T08:40:18.631Z,488
2017-09-05T08:41:18.972Z,488
2017-09-05T08:42:18.994Z,492
2017-09-05T08:43:19.345Z,496
2017-09-05T08:44:19.039Z,504
2017-09-05T08:45:19.062Z,508
2017-09-05T08:46:18.878Z,516
2017-09-05T08:47:19.129Z,516
2017-09-05T08:48:18.804Z,520
2017-09-05T08:49:18.820Z,524
2017-09-05T08:50:18.837Z,528
2017-09-05T08:51:19.292Z,532
2017-09-05T08:52:18.957Z,536
2017-09-05T08:53:18.972Z,544
2017-09-05T08:54:19.247Z,552
2017-09-05T08:55:19.593Z,556
2017-09-05T08:56:19.295Z,560
2017-09-05T08:57:19.320Z,564
2017-09-05T08:58:19.336Z,564
2017-09-05T08:59:19.890Z,568
2017-09-05T09:00:19.055Z,576
2017-09-05T09:01:19.072Z,584
2017-09-05T09:02:19.415Z,596
2017-09-05T09:03:19.780Z,600
2017-09-05T09:04:18.812Z,604
2017-09-05T09:05:19.809Z,616
2017-09-05T09:06:19.836Z,624
2017-09-05T09:07:19.525Z,636
2017-09-05T09:08:19.554Z,644
2017-09-05T09:09:19.885Z,652
2017-09-05T09:10:19.917Z,660
2017-09-05T09:11:19.936Z,668
2017-09-05T09:12:19.632Z,680
2017-09-05T09:13:19.646Z,688
2017-09-05T09:14:20.000Z,696
2017-09-05T09:15:19.376Z,708
2017-09-05T09:16:20.052Z,716
2017-09-05T09:17:19.744Z,720
2017-09-05T09:18:19.442Z,720
2017-09-05T09:19:19.785Z,724
2017-09-05T09:20:20.142Z,728
2017-09-05T09:21:20.155Z,736
2017-09-05T09:22:19.863Z,732
2017-09-05T09:23:19.874Z,736
2017-09-05T09:24:19.573Z,740
2017-09-05T09:25:20.254Z,744
2017-09-05T09:26:19.940Z,748
2017-09-05T09:27:20.287Z,748
2017-09-05T09:28:20.446Z,752
2017-09-05T09:29:20.006Z,756
2017-09-05T09:30:19.704Z,764
2017-09-05T09:31:20.461Z,768
2017-09-05T09:32:20.155Z,776
2017-09-05T09:33:20.420Z,780
2017-09-05T09:34:20.476Z,784
2017-09-05T09:35:20.459Z,788
2017-09-05T09:36:20.482Z,792
2017-09-05T09:37:19.858Z,800
2017-09-05T09:38:20.543Z,808
2017-09-05T09:39:20.553Z,812
2017-09-05T09:40:20.579Z,812
2017-09-05T09:41:19.947Z,808
2017-09-05T09:42:20.295Z,812
2017-09-05T09:43:20.649Z,816
2017-09-05T09:44:20.345Z,804
2017-09-05T09:45:19.718Z,812
2017-09-05T09:46:20.391Z,852
2017-09-05T09:47:20.738Z,864
2017-09-05T09:48:20.447Z,868
2017-09-05T09:49:20.449Z,872
2017-09-05T09:50:20.804Z,860
2017-09-05T09:51:20.499Z,876
2017-09-05T09:52:20.530Z,888
2017-09-05T09:53:20.222Z,888
2017-09-05T09:54:20.242Z,904
2017-09-05T09:55:20.921Z,904
2017-09-05T09:56:20.632Z,912
2017-09-05T09:57:20.643Z,916
2017-09-05T09:58:20.982Z,916
2017-09-05T09:59:20.693Z,924
2017-09-05T10:00:20.711Z,904
2017-09-05T10:01:20.404Z,904
2017-09-05T10:02:20.752Z,924
2017-09-05T10:03:20.780Z,900
2017-09-05T10:04:21.135Z,952
2017-09-05T10:05:20.861Z,964
2017-09-05T10:06:21.183Z,964
2017-09-05T10:07:20.867Z,972
2017-09-05T10:08:20.884Z,988
2017-09-05T10:09:20.602Z,1004
2017-09-05T10:10:20.290Z,1024
2017-09-05T10:11:20.636Z,1040
2017-09-05T10:12:21.304Z,1052
2017-09-05T10:13:21.039Z,1060
2017-09-05T10:14:21.396Z,1088
2017-09-05T10:15:20.729Z,1128
2017-09-05T10:16:21.120Z,1176
2017-09-05T10:17:21.120Z,1256
2017-09-05T10:18:21.570Z,1336
2017-09-05T10:19:21.521Z,1364
2017-09-05T10:20:21.533Z,1220
2017-09-05T10:21:21.324Z,1156
2017-09-05T10:22:21.676Z,1152
2017-09-05T10:23:21.363Z,1156
2017-09-05T10:24:21.050Z,1148
2017-09-05T10:25:21.218Z,1156
2017-09-05T10:26:20.910Z,1176
2017-09-05T10:27:21.560Z,1244
2017-09-05T10:28:21.294Z,1296
2017-09-05T10:29:21.172Z,1316
2017-09-05T10:30:21.179Z,1288
2017-09-05T10:31:21.335Z,1224
2017-09-05T10:32:21.681Z,1200
2017-09-05T10:33:22.046Z,1232
2017-09-05T10:34:21.599Z,1308
2017-09-05T10:35:21.949Z,1420
2017-09-05T10:36:21.631Z,1512
2017-09-05T10:37:21.362Z,1488
2017-09-05T10:38:21.731Z,1468
2017-09-05T10:39:21.393Z,1352
2017-09-05T10:40:21.408Z,1264
2017-09-05T10:41:21.682Z,1272
2017-09-05T10:42:21.833Z,1288
2017-09-05T10:43:21.408Z,1316
2017-09-05T10:44:21.750Z,1384
2017-09-05T10:45:21.129Z,1444
2017-09-05T10:46:21.801Z,1512
2017-09-05T10:47:21.824Z,1528
2017-09-05T10:48:21.848Z,1556
2017-09-05T10:49:22.198Z,1564
2017-09-05T10:50:21.901Z,1568
2017-09-05T10:51:22.251Z,1576
2017-09-05T10:52:21.629Z,1616
2017-09-05T10:53:22.294Z,1652
2017-09-05T10:54:22.001Z,1740
2017-09-05T10:55:22.363Z,1816
2017-09-05T10:56:22.385Z,1732
2017-09-05T10:57:22.409Z,1548
2017-09-05T10:58:22.104Z,1408
2017-09-05T10:59:22.456Z,1364
2017-09-05T11:00:21.507Z,1344
2017-09-05T11:01:22.173Z,1320
2017-09-05T11:02:22.203Z,1336
2017-09-05T11:03:21.906Z,1356
2017-09-05T11:04:22.274Z,1384
2017-09-05T11:05:22.618Z,1368
2017-09-05T11:06:22.627Z,1364
2017-09-05T11:07:22.652Z,1360
2017-09-05T11:08:22.030Z,1384
2017-09-05T11:09:22.378Z,1396
2017-09-05T11:10:22.088Z,1404
2017-09-05T11:11:22.751Z,1396
2017-09-05T11:12:22.132Z,1388
2017-09-05T11:13:22.802Z,1384
2017-09-05T11:14:22.509Z,1380
2017-09-05T11:15:22.541Z,1380
2017-09-05T11:16:22.558Z,1368
2017-09-05T11:17:22.916Z,1384
2017-09-05T11:18:22.615Z,1384
2017-09-05T11:19:22.638Z,1384
2017-09-05T11:20:22.336Z,1368
2017-09-05T11:21:22.694Z,1348
2017-09-05T11:22:23.039Z,1320
2017-09-05T11:23:22.418Z,1320
2017-09-05T11:24:22.770Z,1328
2017-09-05T11:25:23.123Z,1344
2017-09-05T11:26:22.199Z,1348
2017-09-05T11:27:22.541Z,1344
2017-09-05T11:28:23.200Z,1336
2017-09-05T11:29:22.899Z,1320
2017-09-05T11:30:23.250Z,1304
2017-09-05T11:31:22.944Z,1300
2017-09-05T11:32:23.021Z,1296
2017-09-05T11:33:22.671Z,1300
2017-09-05T11:34:23.357Z,1320
2017-09-05T11:35:22.734Z,1356
2017-09-05T11:36:23.078Z,1412
2017-09-05T11:37:23.109Z,1424
2017-09-05T11:38:22.490Z,1384
2017-09-05T11:39:23.161Z,1344
2017-09-05T11:40:22.867Z,1312
2017-09-05T11:41:23.212Z,1312
2017-09-05T11:42:22.924Z,1304
2017-09-05T11:43:23.270Z,1296
2017-09-05T11:44:22.648Z,1292
2017-09-05T11:45:23.322Z,1288
2017-09-05T11:46:23.685Z,1288
2017-09-05T11:47:23.052Z,1292
2017-09-05T11:48:23.126Z,1316
2017-09-05T11:49:23.106Z,1300
2017-09-05T11:50:23.469Z,1296
2017-09-05T11:51:23.162Z,1248
2017-09-05T11:52:23.833Z,1252
2017-09-05T11:53:23.275Z,1276
2017-09-05T11:54:23.585Z,1300
2017-09-05T11:55:23.597Z,1320
2017-09-05T11:56:23.613Z,1308
2017-09-05T11:57:23.327Z,1000
2017-09-05T11:58:24.106Z,1244
2017-09-05T11:59:23.711Z,1264
2017-09-05T12:00:23.725Z,1260
2017-09-05T12:01:23.427Z,1284
2017-09-05T12:02:24.107Z,1256
2017-09-05T12:03:23.482Z,820
2017-09-05T12:04:23.510Z,1056
2017-09-05T12:05:24.192Z,1272
2017-09-05T12:06:23.881Z,1256
2017-09-05T12:07:23.915Z,1012
2017-09-05T12:08:23.617Z,900
2017-09-05T12:09:23.655Z,1324
2017-09-05T12:10:24.316Z,1320
2017-09-05T12:11:24.345Z,1308
2017-09-05T12:12:23.724Z,1300
2017-09-05T12:13:24.415Z,1288
2017-09-05T12:14:24.111Z,1268
2017-09-05T12:15:24.130Z,1248
2017-09-05T12:16:24.169Z,1256
2017-09-05T12:17:24.190Z,1268
2017-09-05T12:18:24.221Z,1276
2017-09-05T12:19:24.250Z,1260
2017-09-05T12:20:23.629Z,1248
2017-09-05T12:21:23.982Z,1252
2017-09-05T12:22:24.325Z,1236
2017-09-05T12:23:24.039Z,1268
2017-09-05T12:24:24.382Z,1292
2017-09-05T12:25:23.765Z,1280
2017-09-05T12:26:24.129Z,1268
2017-09-05T12:27:23.821Z,1248
2017-09-05T12:28:24.491Z,1240
2017-09-05T12:29:24.880Z,1248
2017-09-05T12:30:24.868Z,1192
2017-09-05T12:31:24.587Z,960
2017-09-05T12:32:24.605Z,1204
2017-09-05T12:33:24.315Z,1296
2017-09-05T12:34:24.660Z,1308
2017-09-05T12:35:25.016Z,1288
2017-09-05T12:36:25.044Z,1304
2017-09-05T12:37:25.066Z,1328
2017-09-05T12:38:24.778Z,1316
2017-09-05T12:39:24.794Z,1292
2017-09-05T12:40:24.829Z,1268
2017-09-05T12:41:25.180Z,1268
2017-09-05T12:42:24.891Z,1264
2017-09-05T12:43:24.584Z,1260
2017-09-05T12:44:24.950Z,1232
2017-09-05T12:45:24.642Z,1208
2017-09-05T12:46:24.994Z,1184
2017-09-05T12:47:24.381Z,1148
2017-09-05T12:48:25.053Z,1112
2017-09-05T12:49:25.132Z,1084
2017-09-05T12:50:25.447Z,1060
2017-09-05T12:51:25.138Z,1044
2017-09-05T12:52:24.852Z,1036
2017-09-05T12:53:25.203Z,1020
2017-09-05T12:54:24.902Z,1008
2017-09-05T12:55:25.582Z,992
2017-09-05T12:56:25.277Z,980
2017-09-05T12:57:25.312Z,968
2017-09-05T12:58:25.014Z,956
2017-09-05T12:59:24.715Z,948
2017-09-05T13:00:25.390Z,944
2017-09-05T13:01:25.422Z,932
2017-09-05T13:02:25.447Z,920
2017-09-05T13:03:25.153Z,912
2017-09-05T13:04:25.511Z,920
2017-09-05T13:05:25.868Z,932
2017-09-05T13:06:24.919Z,936
2017-09-05T13:07:25.598Z,936
2017-09-05T13:08:25.631Z,932
2017-09-05T13:09:25.978Z,924
2017-09-05T13:10:25.678Z,920
2017-09-05T13:11:25.059Z,924
2017-09-05T13:12:25.739Z,924
2017-09-05T13:13:26.084Z,924
2017-09-05T13:14:25.492Z,936
2017-09-05T13:15:25.506Z,948
2017-09-05T13:16:25.534Z,956
2017-09-05T13:17:26.217Z,964
2017-09-05T13:18:25.922Z,976
2017-09-05T13:19:25.939Z,980
2017-09-05T13:20:25.320Z,976
2017-09-05T13:21:25.689Z,980
2017-09-05T13:22:26.031Z,984
2017-09-05T13:23:25.746Z,992
2017-09-05T13:24:26.406Z,1000
2017-09-05T13:25:26.449Z,1016
2017-09-05T13:26:26.147Z,1040
2017-09-05T13:27:25.533Z,1060
2017-09-05T13:28:26.210Z,1092
2017-09-05T13:29:26.570Z,1120
2017-09-05T13:30:25.941Z,1112
2017-09-05T13:31:26.284Z,1160
2017-09-05T13:32:26.654Z,1184
2017-09-05T13:33:26.685Z,1208
2017-09-05T13:34:26.065Z,1220
2017-09-05T13:35:26.084Z,1236
2017-09-05T13:36:26.433Z,1268
2017-09-05T13:37:26.791Z,1304
2017-09-05T13:38:26.490Z,1344
2017-09-05T13:39:26.850Z,1376
2017-09-05T13:40:26.878Z,1396
2017-09-05T13:41:26.579Z,1452
2017-09-05T13:42:26.934Z,1492
2017-09-05T13:43:26.646Z,1540
2017-09-05T13:44:26.351Z,1496
2017-09-05T13:45:26.721Z,1392
2017-09-05T13:46:26.727Z,1076
2017-09-05T13:47:26.760Z,1088
2017-09-05T13:48:26.780Z,1108
2017-09-05T13:49:26.496Z,1580
2017-09-05T13:50:26.840Z,1920
2017-09-05T13:51:26.880Z,2128
2017-09-05T13:52:26.902Z,2108
2017-09-05T13:53:26.640Z,2092
2017-09-05T13:54:26.848Z,2076
2017-09-05T13:55:27.117Z,2088
2017-09-05T13:56:27.426Z,2124
2017-09-05T13:57:27.135Z,2024
2017-09-05T13:58:27.198Z,1732